フアン・サンタ・マリア国際空港の過去48時間の天気

フアン・サンタ・マリア国際空港 (Juan Santamaria)

現在時刻: 2/20 17:24 CST (2/20 23:24 UTC) 以下の時間は現地時間です。

過去48時間のMETAR気象情報
時間 風向 風速(m/s) 視程 気温(℃) 湿度(%) 気圧(hPa) 天気現象
20 17:00 東南東 7 10km以上 25 61 1014
20 16:00 東南東 7 10km以上 27 54 1014
20 15:00 7 10km以上 28 48 1014
20 14:00 8 10km以上 28 51 1014
MROC 202300Z 11014KT 9999 SCT030 SCT200 25/17 A2994 NOSIG
MROC 202200Z 11014KT 9999 SCT030 SCT200 27/17 A2993 NOSIG
MROC 202100Z 09013KT 9999 FEW035 BKN100 28/16 A2993 NOSIG
MROC 202000Z 10015G25KT 9999 FEW040 BKN160 28/17 A2994 NOSIG